Time,TemperatureF,DewpointF,PressureIn,WindDirection,WindDirectionDegrees,WindSpeedMPH,WindSpeedGustMPH,Humidity,HourlyPrecipIn,Conditions,Clouds,dailyrainin,SoftwareType,DateUTC
2013-05-24 00:05:00,47.2,44.1,29.93,NW,317,0.0,25.0,89,0.00,,,0.00,Wunderground v.1.15,2013-05-24 07:05:00,
2013-05-24 00:11:00,47.1,44.0,29.92,NW,317,0.0,25.0,89,0.00,,,0.00,Wunderground v.1.15,2013-05-24 07:11:00,
2013-05-24 00:16:00,46.9,43.8,29.92,NW,317,0.0,25.0,89,0.00,,,0.00,Wunderground v.1.15,2013-05-24 07:16:00,
2013-05-24 00:22:00,46.8,44.0,29.92,NW,317,0.0,25.0,90,0.00,,,0.00,Wunderground v.1.15,2013-05-24 07:22:00,
2013-05-24 00:28:00,46.7,43.6,29.92,NW,317,0.0,25.0,89,0.00,,,0.00,Wunderground v.1.15,2013-05-24 07:28:00,
2013-05-24 00:33:00,46.6,43.8,29.92,NW,317,0.0,25.0,90,0.00,,,0.00,Wunderground v.1.15,2013-05-24 07:33:00,
2013-05-24 00:39:00,46.5,43.7,29.93,NW,317,0.0,25.0,90,0.00,,,0.00,Wunderground v.1.15,2013-05-24 07:39:00,
2013-05-24 00:44:00,46.3,43.2,29.93,NW,317,0.0,25.0,89,0.00,,,0.00,Wunderground v.1.15,2013-05-24 07:44:00,
2013-05-24 00:49:00,46.1,43.3,29.93,NW,317,0.0,25.0,90,0.00,,,0.00,Wunderground v.1.15,2013-05-24 07:49:00,
2013-05-24 00:55:00,46.0,43.2,29.92,NW,317,0.0,25.0,90,0.00,,,0.00,Wunderground v.1.15,2013-05-24 07:55:00,
2013-05-24 01:00:00,45.8,43.0,29.93,NW,317,0.0,25.0,90,0.00,,,0.00,Wunderground v.1.15,2013-05-24 08:00:00,
2013-05-24 01:06:00,45.7,42.9,29.93,NW,317,0.0,25.0,90,0.00,,,0.00,Wunderground v.1.15,2013-05-24 08:06:00,
2013-05-24 01:12:00,45.5,42.7,29.92,NW,317,0.0,25.0,90,0.00,,,0.00,Wunderground v.1.15,2013-05-24 08:12:00,
2013-05-24 01:17:00,45.3,42.5,29.92,NW,317,0.0,25.0,90,0.00,,,0.00,Wunderground v.1.15,2013-05-24 08:17:00,
2013-05-24 01:23:00,45.2,42.7,29.92,NW,317,0.0,25.0,91,0.00,,,0.00,Wunderground v.1.15,2013-05-24 08:23:00,
2013-05-24 01:29:00,45.2,42.7,29.92,NW,317,0.0,25.0,91,0.00,,,0.00,Wunderground v.1.15,2013-05-24 08:29:00,
2013-05-24 01:35:00,45.1,42.6,29.92,NW,317,0.0,25.0,91,0.00,,,0.00,Wunderground v.1.15,2013-05-24 08:35:00,
2013-05-24 01:41:00,45.0,42.5,29.92,North,360,0.0,25.0,91,0.00,,,0.00,Wunderground v.1.15,2013-05-24 08:41:00,
2013-05-24 01:47:00,45.0,42.5,29.92,North,360,0.0,25.0,91,0.00,,,0.00,Wunderground v.1.15,2013-05-24 08:47:00,
2013-05-24 01:53:00,44.9,42.4,29.92,North,360,0.0,25.0,91,0.00,,,0.00,Wunderground v.1.15,2013-05-24 08:53:00,
2013-05-24 01:59:00,45.0,42.8,29.92,North,360,0.0,25.0,92,0.00,,,0.00,Wunderground v.1.15,2013-05-24 08:59:00,
2013-05-24 02:05:00,44.9,42.4,29.92,North,360,0.0,25.0,91,0.00,,,0.00,Wunderground v.1.15,2013-05-24 09:05:00,
2013-05-24 02:11:00,44.7,42.2,29.92,North,360,0.0,25.0,91,0.00,,,0.00,Wunderground v.1.15,2013-05-24 09:11:00,
2013-05-24 02:17:00,44.6,42.1,29.91,North,360,0.0,25.0,91,0.00,,,0.00,Wunderground v.1.15,2013-05-24 09:17:00,
2013-05-24 02:23:00,44.5,42.0,29.91,North,360,0.0,25.0,91,0.00,,,0.00,Wunderground v.1.15,2013-05-24 09:23:00,
2013-05-24 02:28:00,44.4,42.2,29.91,North,360,0.0,25.0,92,0.00,,,0.00,Wunderground v.1.15,2013-05-24 09:28:00,
2013-05-24 02:33:00,44.5,42.3,29.91,North,360,0.0,25.0,92,0.00,,,0.00,Wunderground v.1.15,2013-05-24 09:33:00,
2013-05-24 02:39:00,44.5,42.3,29.91,North,360,0.0,25.0,92,0.00,,,0.00,Wunderground v.1.15,2013-05-24 09:39:00,
2013-05-24 02:46:00,44.4,42.2,29.91,North,360,0.0,25.0,92,0.00,,,0.00,Wunderground v.1.15,2013-05-24 09:46:00,
2013-05-24 02:51:00,44.3,42.1,29.91,North,360,0.0,25.0,92,0.00,,,0.00,Wunderground v.1.15,2013-05-24 09:51:00,
2013-05-24 02:56:00,44.1,41.6,29.91,North,360,0.0,25.0,91,0.00,,,0.00,Wunderground v.1.15,2013-05-24 09:56:00,
2013-05-24 03:02:00,43.9,41.7,29.91,North,360,0.0,25.0,92,0.00,,,0.00,Wunderground v.1.15,2013-05-24 10:02:00,
2013-05-24 03:08:00,43.8,41.6,29.91,NNE,15,0.0,25.0,92,0.00,,,0.00,Wunderground v.1.15,2013-05-24 10:08:00,
2013-05-24 03:14:00,43.9,41.7,29.92,ENE,66,0.0,25.0,92,0.00,,,0.00,Wunderground v.1.15,2013-05-24 10:14:00,
2013-05-24 03:19:00,43.9,41.7,29.92,ENE,66,0.0,25.0,92,0.00,,,0.00,Wunderground v.1.15,2013-05-24 10:19:00,
2013-05-24 03:24:00,43.9,41.7,29.92,ENE,63,0.0,25.0,92,0.00,,,0.00,Wunderground v.1.15,2013-05-24 10:24:00,
2013-05-24 03:31:00,43.9,41.7,29.92,ENE,63,0.0,25.0,92,0.00,,,0.00,Wunderground v.1.15,2013-05-24 10:31:00,
2013-05-24 03:36:00,43.8,41.6,29.92,ENE,62,0.0,25.0,92,0.00,,,0.00,Wunderground v.1.15,2013-05-24 10:36:00,
2013-05-24 03:42:00,43.7,41.5,29.92,NE,56,0.0,25.0,92,0.00,,,0.00,Wunderground v.1.15,2013-05-24 10:42:00,
2013-05-24 03:48:00,43.9,42.0,29.92,NE,46,0.0,25.0,93,0.00,,,0.00,Wunderground v.1.15,2013-05-24 10:48:00,
2013-05-24 03:53:00,43.8,41.6,29.92,NNE,18,0.0,25.0,92,0.00,,,0.00,Wunderground v.1.15,2013-05-24 10:53:00,
2013-05-24 03:58:00,43.7,41.5,29.92,NNE,18,0.0,25.0,92,0.00,,,0.00,Wunderground v.1.15,2013-05-24 10:58:00,
2013-05-24 04:04:00,43.6,41.4,29.92,NNE,16,0.0,25.0,92,0.00,,,0.00,Wunderground v.1.15,2013-05-24 11:04:00,
2013-05-24 04:09:00,43.5,41.3,29.92,NNE,13,0.0,25.0,92,0.00,,,0.00,Wunderground v.1.15,2013-05-24 11:09:00,
2013-05-24 04:15:00,43.5,41.3,29.92,NNE,13,0.0,25.0,92,0.00,,,0.00,Wunderground v.1.15,2013-05-24 11:15:00,
2013-05-24 04:21:00,43.4,41.2,29.92,NNE,13,0.0,25.0,92,0.00,,,0.00,Wunderground v.1.15,2013-05-24 11:21:00,
2013-05-24 04:27:00,43.4,41.5,29.92,NE,43,0.0,25.0,93,0.00,,,0.00,Wunderground v.1.15,2013-05-24 11:27:00,
2013-05-24 04:33:00,43.4,41.5,29.92,NE,43,0.0,25.0,93,0.00,,,0.00,Wunderground v.1.15,2013-05-24 11:33:00,
2013-05-24 04:38:00,43.1,40.9,29.93,NE,43,0.0,25.0,92,0.00,,,0.00,Wunderground v.1.15,2013-05-24 11:38:00,
2013-05-24 04:43:00,42.8,40.6,29.93,NE,43,0.0,25.0,92,0.00,,,0.00,Wunderground v.1.15,2013-05-24 11:43:00,
2013-05-24 04:49:00,42.7,40.5,29.93,NE,43,0.0,25.0,92,0.00,,,0.00,Wunderground v.1.15,2013-05-24 11:49:00,
2013-05-24 04:54:00,42.6,40.4,29.93,NNE,31,0.0,25.0,92,0.00,,,0.00,Wunderground v.1.15,2013-05-24 11:54:00,
2013-05-24 04:59:00,42.6,40.7,29.93,NNE,31,0.0,25.0,93,0.00,,,0.00,Wunderground v.1.15,2013-05-24 11:59:00,
2013-05-24 05:05:00,42.6,40.7,29.93,NNE,31,0.0,25.0,93,0.00,,,0.00,Wunderground v.1.15,2013-05-24 12:05:00,
2013-05-24 05:11:00,42.5,40.3,29.94,NNE,31,0.0,25.0,92,0.00,,,0.00,Wunderground v.1.15,2013-05-24 12:11:00,
2013-05-24 05:16:00,42.3,40.1,29.94,NNE,31,0.0,25.0,92,0.00,,,0.00,Wunderground v.1.15,2013-05-24 12:16:00,
2013-05-24 05:22:00,42.1,39.9,29.94,NNE,31,0.0,25.0,92,0.00,,,0.00,Wunderground v.1.15,2013-05-24 12:22:00,
2013-05-24 05:27:00,42.0,39.8,29.94,NNE,31,0.0,25.0,92,0.00,,,0.00,Wunderground v.1.15,2013-05-24 12:27:00,
2013-05-24 05:33:00,42.0,39.8,29.94,NNE,31,0.0,25.0,92,0.00,,,0.00,Wunderground v.1.15,2013-05-24 12:33:00,
2013-05-24 05:40:00,41.9,39.7,29.94,NNE,31,0.0,25.0,92,0.00,,,0.00,Wunderground v.1.15,2013-05-24 12:40:00,
2013-05-24 05:45:00,41.9,40.0,29.94,NNE,31,0.0,25.0,93,0.00,,,0.00,Wunderground v.1.15,2013-05-24 12:45:00,
2013-05-24 05:51:00,41.8,39.9,29.95,NNE,29,0.0,25.0,93,0.00,,,0.00,Wunderground v.1.15,2013-05-24 12:51:00,
2013-05-24 05:57:00,41.7,39.8,29.95,NNE,19,0.0,25.0,93,0.00,,,0.00,Wunderground v.1.15,2013-05-24 12:57:00,
2013-05-24 06:03:00,41.9,40.0,29.95,NNE,20,0.0,25.0,93,0.00,,,0.00,Wunderground v.1.15,2013-05-24 13:03:00,
2013-05-24 06:09:00,41.9,40.3,29.95,NNE,20,0.0,25.0,94,0.00,,,0.00,Wunderground v.1.15,2013-05-24 13:09:00,
2013-05-24 06:15:00,42.1,40.5,29.95,NNE,20,0.0,25.0,94,0.00,,,0.00,Wunderground v.1.15,2013-05-24 13:15:00,
2013-05-24 06:20:00,42.2,40.6,29.96,NNE,20,0.0,25.0,94,0.00,,,0.00,Wunderground v.1.15,2013-05-24 13:20:00,
2013-05-24 06:26:00,42.2,40.6,29.96,NNE,20,0.0,25.0,94,0.00,,,0.00,Wunderground v.1.15,2013-05-24 13:26:00,
2013-05-24 06:31:00,42.3,40.7,29.96,NNE,18,0.0,25.0,94,0.00,,,0.00,Wunderground v.1.15,2013-05-24 13:31:00,
2013-05-24 06:36:00,42.6,41.0,29.96,NNE,14,0.0,25.0,94,0.00,,,0.00,Wunderground v.1.15,2013-05-24 13:36:00,
2013-05-24 06:42:00,43.1,41.8,29.97,NNE,14,0.0,25.0,95,0.00,,,0.00,Wunderground v.1.15,2013-05-24 13:42:00,
2013-05-24 06:47:00,43.5,42.2,29.97,NNE,14,0.0,25.0,95,0.00,,,0.00,Wunderground v.1.15,2013-05-24 13:47:00,
2013-05-24 06:52:00,43.8,42.5,29.97,NNE,14,0.0,25.0,95,0.00,,,0.00,Wunderground v.1.15,2013-05-24 13:52:00,
2013-05-24 06:58:00,44.4,43.1,29.97,NE,52,0.0,25.0,95,0.00,,,0.00,Wunderground v.1.15,2013-05-24 13:58:00,
2013-05-24 07:03:00,44.8,43.7,29.97,NE,52,0.0,25.0,96,0.00,,,0.00,Wunderground v.1.15,2013-05-24 14:03:00,
2013-05-24 07:08:00,45.3,44.2,29.97,NE,52,0.0,25.0,96,0.00,,,0.00,Wunderground v.1.15,2013-05-24 14:08:00,
2013-05-24 07:13:00,46.1,45.0,29.98,NE,52,0.0,25.0,96,0.00,,,0.00,Wunderground v.1.15,2013-05-24 14:13:00,
2013-05-24 07:18:00,47.0,45.9,29.97,NE,52,0.0,25.0,96,0.00,,,0.00,Wunderground v.1.15,2013-05-24 14:18:00,
2013-05-24 07:23:00,48.1,47.0,29.98,NE,52,0.0,25.0,96,0.00,,,0.00,Wunderground v.1.15,2013-05-24 14:23:00,
2013-05-24 07:29:00,49.4,48.3,29.98,NE,52,0.0,25.0,96,0.00,,,0.00,Wunderground v.1.15,2013-05-24 14:29:00,
2013-05-24 07:34:00,50.5,48.6,29.98,NE,52,0.0,25.0,93,0.00,,,0.00,Wunderground v.1.15,2013-05-24 14:34:00,
2013-05-24 07:39:00,50.9,47.8,29.98,SSE,157,1.0,25.0,89,0.00,,,0.00,Wunderground v.1.15,2013-05-24 14:39:00,
2013-05-24 07:44:00,51.5,47.8,29.98,SSE,157,1.0,25.0,87,0.00,,,0.00,Wunderground v.1.15,2013-05-24 14:44:00,
2013-05-24 07:49:00,52.2,47.8,29.98,SE,133,0.0,25.0,85,0.00,,,0.00,Wunderground v.1.15,2013-05-24 14:49:00,
2013-05-24 07:54:00,52.8,48.1,29.98,SE,127,0.0,25.0,84,0.00,,,0.00,Wunderground v.1.15,2013-05-24 14:54:00,
2013-05-24 07:59:00,53.8,48.1,29.97,ESE,106,0.0,25.0,81,0.00,,,0.00,Wunderground v.1.15,2013-05-24 14:59:00,
2013-05-24 08:04:00,54.9,48.5,29.97,ESE,110,0.0,25.0,79,0.00,,,0.00,Wunderground v.1.15,2013-05-24 15:04:00,
2013-05-24 08:09:00,55.8,49.0,29.97,ESE,111,0.0,25.0,78,0.00,,,0.00,Wunderground v.1.15,2013-05-24 15:09:00,
2013-05-24 08:14:00,56.6,48.8,29.97,ESE,113,0.0,25.0,75,0.00,,,0.00,Wunderground v.1.15,2013-05-24 15:14:00,
2013-05-24 08:20:00,57.1,49.2,29.98,ESE,120,0.0,25.0,75,0.00,,,0.00,Wunderground v.1.15,2013-05-24 15:20:00,
2013-05-24 08:25:00,57.6,49.0,29.98,ESE,121,0.0,25.0,73,0.00,,,0.00,Wunderground v.1.15,2013-05-24 15:25:00,
2013-05-24 08:30:00,58.6,49.6,29.98,ESE,121,0.0,25.0,72,0.00,,,0.00,Wunderground v.1.15,2013-05-24 15:30:00,
2013-05-24 08:35:00,59.8,49.6,29.97,ESE,121,0.0,25.0,69,0.00,,,0.00,Wunderground v.1.15,2013-05-24 15:35:00,
2013-05-24 08:40:00,60.3,50.5,29.97,ESE,123,0.0,25.0,70,0.00,,,0.00,Wunderground v.1.15,2013-05-24 15:40:00,
2013-05-24 08:45:00,61.0,50.8,29.97,ESE,123,0.0,25.0,69,0.00,,,0.00,Wunderground v.1.15,2013-05-24 15:45:00,
2013-05-24 08:50:00,61.9,51.2,29.97,SE,125,0.0,25.0,68,0.00,,,0.00,Wunderground v.1.15,2013-05-24 15:50:00,
2013-05-24 08:55:00,63.0,51.5,29.97,SE,138,0.0,25.0,66,0.00,,,0.00,Wunderground v.1.15,2013-05-24 15:55:00,
2013-05-24 09:00:00,63.3,51.7,29.98,ESE,119,1.0,25.0,66,0.00,,,0.00,Wunderground v.1.15,2013-05-24 16:00:00,
2013-05-24 09:05:00,63.9,52.3,29.97,East,94,1.0,25.0,66,0.00,,,0.00,Wunderground v.1.15,2013-05-24 16:05:00,
2013-05-24 09:11:00,64.7,52.2,29.97,South,172,0.0,25.0,64,0.00,,,0.00,Wunderground v.1.15,2013-05-24 16:11:00,
2013-05-24 09:16:00,64.7,51.4,29.97,West,259,1.0,25.0,62,0.00,,,0.00,Wunderground v.1.15,2013-05-24 16:16:00,
2013-05-24 09:22:00,65.1,51.3,29.97,WSW,243,1.0,25.0,61,0.00,,,0.00,Wunderground v.1.15,2013-05-24 16:22:00,
2013-05-24 09:27:00,65.6,50.0,29.97,WNW,289,1.0,25.0,57,0.00,,,0.00,Wunderground v.1.15,2013-05-24 16:27:00,
2013-05-24 09:32:00,66.0,51.3,29.97,NW,313,1.0,25.0,59,0.00,,,0.00,Wunderground v.1.15,2013-05-24 16:32:00,
2013-05-24 09:37:00,66.6,51.8,29.97,SSW,198,1.0,25.0,59,0.00,,,0.00,Wunderground v.1.15,2013-05-24 16:37:00,
2013-05-24 09:42:00,66.9,50.7,29.97,SW,221,1.0,25.0,56,0.00,,,0.00,Wunderground v.1.15,2013-05-24 16:42:00,
2013-05-24 09:48:00,67.1,51.4,29.97,WNW,292,2.0,25.0,57,0.00,,,0.00,Wunderground v.1.15,2013-05-24 16:48:00,
2013-05-24 09:53:00,67.5,50.8,29.97,WNW,292,2.0,25.0,55,0.00,,,0.00,Wunderground v.1.15,2013-05-24 16:53:00,
2013-05-24 09:57:00,67.7,50.5,29.97,SW,227,3.0,25.0,54,0.00,,,0.00,Wunderground v.1.15,2013-05-24 16:57:00,
2013-05-24 10:04:00,67.8,50.5,29.97,WSW,247,3.0,25.0,54,0.00,,,0.00,Wunderground v.1.15,2013-05-24 17:04:00,
2013-05-24 10:09:00,68.2,50.4,29.97,WSW,244,3.0,25.0,53,0.00,,,0.00,Wunderground v.1.15,2013-05-24 17:09:00,
2013-05-24 10:14:00,68.5,50.7,29.97,South,182,2.0,25.0,53,0.00,,,0.00,Wunderground v.1.15,2013-05-24 17:14:00,
2013-05-24 10:19:00,68.7,51.4,29.96,SSW,205,2.0,25.0,54,0.00,,,0.00,Wunderground v.1.15,2013-05-24 17:19:00,
2013-05-24 10:25:00,68.7,50.9,29.96,SSW,194,3.0,25.0,53,0.00,,,0.00,Wunderground v.1.15,2013-05-24 17:25:00,
2013-05-24 10:31:00,68.8,50.5,29.96,NNW,335,2.0,25.0,52,0.00,,,0.00,Wunderground v.1.15,2013-05-24 17:31:00,
2013-05-24 10:37:00,69.3,51.9,29.97,South,169,3.0,25.0,54,0.00,,,0.00,Wunderground v.1.15,2013-05-24 17:37:00,
2013-05-24 10:42:00,69.5,52.6,29.97,SW,216,4.0,25.0,55,0.00,,,0.00,Wunderground v.1.15,2013-05-24 17:42:00,
2013-05-24 10:48:00,69.8,52.4,29.97,WSW,250,4.0,25.0,54,0.00,,,0.00,Wunderground v.1.15,2013-05-24 17:48:00,
2013-05-24 10:53:00,70.1,52.2,29.97,WSW,252,4.0,25.0,53,0.00,,,0.00,Wunderground v.1.15,2013-05-24 17:53:00,
2013-05-24 10:58:00,70.2,52.8,29.97,SSW,197,4.0,25.0,54,0.00,,,0.00,Wunderground v.1.15,2013-05-24 17:58:00,
2013-05-24 11:04:00,70.1,51.1,29.97,SW,214,4.0,25.0,51,0.00,,,0.00,Wunderground v.1.15,2013-05-24 18:04:00,
2013-05-24 11:09:00,70.2,51.2,29.97,WSW,248,5.0,25.0,51,0.00,,,0.00,Wunderground v.1.15,2013-05-24 18:09:00,
2013-05-24 11:14:00,70.5,52.0,29.97,SW,222,5.0,25.0,52,0.00,,,0.00,Wunderground v.1.15,2013-05-24 18:14:00,
2013-05-24 11:20:00,70.9,52.9,29.97,SE,132,4.0,25.0,53,0.00,,,0.00,Wunderground v.1.15,2013-05-24 18:20:00,
2013-05-24 11:25:00,71.0,53.0,29.97,SSW,203,4.0,25.0,53,0.00,,,0.00,Wunderground v.1.15,2013-05-24 18:25:00,
2013-05-24 11:31:00,70.8,52.8,29.97,SW,216,5.0,25.0,53,0.00,,,0.00,Wunderground v.1.15,2013-05-24 18:31:00,
2013-05-24 11:36:00,70.4,53.0,29.97,WSW,241,6.0,25.0,54,0.00,,,0.00,Wunderground v.1.15,2013-05-24 18:36:00,
2013-05-24 11:42:00,70.0,53.6,29.97,SW,233,6.0,25.0,56,0.00,,,0.00,Wunderground v.1.15,2013-05-24 18:42:00,
2013-05-24 11:47:00,70.0,54.5,29.97,SW,218,5.0,25.0,58,0.00,,,0.00,Wunderground v.1.15,2013-05-24 18:47:00,
2013-05-24 11:53:00,70.0,54.1,29.97,SSW,198,6.0,25.0,57,0.00,,,0.00,Wunderground v.1.15,2013-05-24 18:53:00,
2013-05-24 11:58:00,70.4,54.0,29.97,SSW,192,5.0,25.0,56,0.00,,,0.00,Wunderground v.1.15,2013-05-24 18:58:00,
2013-05-24 12:04:00,70.2,54.7,29.97,SW,216,6.0,25.0,58,0.00,,,0.00,Wunderground v.1.15,2013-05-24 19:04:00,
2013-05-24 12:10:00,70.2,55.7,29.97,SSW,196,5.0,5.0,60,0.00,,,0.00,Wunderground v.1.15,2013-05-24 19:10:00,
2013-05-24 12:15:00,70.2,55.2,29.97,SSW,213,5.0,25.0,59,0.00,,,0.00,Wunderground v.1.15,2013-05-24 19:15:00,
2013-05-24 12:21:00,70.4,55.4,29.97,SW,235,5.0,25.0,59,0.00,,,0.00,Wunderground v.1.15,2013-05-24 19:21:00,
2013-05-24 12:27:00,70.4,54.0,29.97,SW,215,5.0,25.0,56,0.00,,,0.00,Wunderground v.1.15,2013-05-24 19:27:00,
2013-05-24 12:33:00,70.2,54.7,29.97,SW,223,5.0,25.0,58,0.00,,,0.00,Wunderground v.1.15,2013-05-24 19:33:00,
2013-05-24 12:38:00,70.4,54.0,29.97,SW,225,6.0,25.0,56,0.00,,,0.00,Wunderground v.1.15,2013-05-24 19:38:00,
2013-05-24 12:43:00,70.5,54.5,29.97,SW,226,6.0,25.0,57,0.00,,,0.00,Wunderground v.1.15,2013-05-24 19:43:00,
2013-05-24 12:48:00,70.5,53.6,29.97,SW,236,6.0,25.0,55,0.00,,,0.00,Wunderground v.1.15,2013-05-24 19:48:00,
2013-05-24 12:54:00,70.5,55.5,29.97,West,279,6.0,25.0,59,0.00,,,0.00,Wunderground v.1.15,2013-05-24 19:54:00,
2013-05-24 13:00:00,70.6,55.1,29.97,SSW,200,6.0,6.0,58,0.00,,,0.00,Wunderground v.1.15,2013-05-24 20:00:00,
2013-05-24 13:06:00,70.6,54.6,29.97,SSW,200,6.0,25.0,57,0.00,,,0.00,Wunderground v.1.15,2013-05-24 20:06:00,
2013-05-24 13:11:00,70.5,54.0,29.97,SW,231,6.0,25.0,56,0.00,,,0.00,Wunderground v.1.15,2013-05-24 20:11:00,
2013-05-24 13:16:00,70.2,53.8,29.97,SW,223,6.0,25.0,56,0.00,,,0.00,Wunderground v.1.15,2013-05-24 20:16:00,
2013-05-24 13:21:00,70.3,53.9,29.97,SW,234,6.0,25.0,56,0.00,,,0.00,Wunderground v.1.15,2013-05-24 20:21:00,
2013-05-24 13:26:00,70.5,54.5,29.97,SW,217,6.0,25.0,57,0.00,,,0.00,Wunderground v.1.15,2013-05-24 20:26:00,
2013-05-24 13:32:00,70.4,54.9,29.97,SW,222,6.0,25.0,58,0.00,,,0.00,Wunderground v.1.15,2013-05-24 20:32:00,
2013-05-24 13:37:00,70.3,54.3,29.96,WSW,250,6.0,25.0,57,0.00,,,0.00,Wunderground v.1.15,2013-05-24 20:37:00,
2013-05-24 13:43:00,70.5,54.0,29.96,SSW,192,6.0,25.0,56,0.00,,,0.00,Wunderground v.1.15,2013-05-24 20:43:00,
2013-05-24 13:48:00,70.8,54.3,29.96,South,173,6.0,25.0,56,0.00,,,0.00,Wunderground v.1.15,2013-05-24 20:48:00,
2013-05-24 13:53:00,70.6,54.1,29.96,NE,38,6.0,25.0,56,0.00,,,0.00,Wunderground v.1.15,2013-05-24 20:53:00,
2013-05-24 13:59:00,70.4,54.4,29.97,SW,223,6.0,25.0,57,0.00,,,0.00,Wunderground v.1.15,2013-05-24 20:59:00,
2013-05-24 14:04:00,70.2,55.2,29.96,WSW,258,6.0,25.0,59,0.00,,,0.00,Wunderground v.1.15,2013-05-24 21:04:00,
2013-05-24 14:10:00,70.2,54.2,29.96,West,276,6.0,25.0,57,0.00,,,0.00,Wunderground v.1.15,2013-05-24 21:10:00,
2013-05-24 14:15:00,70.4,54.0,29.96,WSW,255,6.0,25.0,56,0.00,,,0.00,Wunderground v.1.15,2013-05-24 21:15:00,
2013-05-24 14:20:00,70.4,54.9,29.96,South,180,6.0,6.0,58,0.00,,,0.00,Wunderground v.1.15,2013-05-24 21:20:00,
2013-05-24 14:26:00,70.6,54.1,29.96,SSW,211,6.0,25.0,56,0.00,,,0.00,Wunderground v.1.15,2013-05-24 21:26:00,
2013-05-24 14:32:00,70.3,54.3,29.96,WSW,246,6.0,25.0,57,0.00,,,0.00,Wunderground v.1.15,2013-05-24 21:32:00,
2013-05-24 14:38:00,70.0,54.1,29.96,SW,221,7.0,25.0,57,0.00,,,0.00,Wunderground v.1.15,2013-05-24 21:38:00,
2013-05-24 14:43:00,70.2,54.2,29.96,West,277,7.0,25.0,57,0.00,,,0.00,Wunderground v.1.15,2013-05-24 21:43:00,
2013-05-24 14:49:00,70.2,53.3,29.96,SSW,206,7.0,25.0,55,0.00,,,0.00,Wunderground v.1.15,2013-05-24 21:49:00,
2013-05-24 14:54:00,69.9,53.5,29.96,SW,223,7.0,25.0,56,0.00,,,0.00,Wunderground v.1.15,2013-05-24 21:54:00,
2013-05-24 15:00:00,69.8,53.9,29.96,WSW,240,6.0,25.0,57,0.00,,,0.00,Wunderground v.1.15,2013-05-24 22:00:00,
2013-05-24 15:06:00,69.9,54.0,29.96,SW,219,6.0,25.0,57,0.00,,,0.00,Wunderground v.1.15,2013-05-24 22:06:00,
2013-05-24 15:12:00,69.9,54.4,29.96,WSW,252,6.0,25.0,58,0.00,,,0.00,Wunderground v.1.15,2013-05-24 22:12:00,
2013-05-24 15:18:00,69.7,54.3,29.96,SSW,208,7.0,25.0,58,0.00,,,0.00,Wunderground v.1.15,2013-05-24 22:18:00,
2013-05-24 15:23:00,69.5,54.1,29.96,SSW,196,7.0,25.0,58,0.00,,,0.00,Wunderground v.1.15,2013-05-24 22:23:00,
2013-05-24 15:29:00,69.6,53.2,29.96,SSE,157,6.0,25.0,56,0.00,,,0.00,Wunderground v.1.15,2013-05-24 22:29:00,
2013-05-24 15:34:00,68.8,52.9,29.96,South,182,7.0,25.0,57,0.00,,,0.00,Wunderground v.1.15,2013-05-24 22:34:00,
2013-05-24 15:40:00,68.7,53.3,29.96,South,175,6.0,25.0,58,0.00,,,0.00,Wunderground v.1.15,2013-05-24 22:40:00,
2013-05-24 15:45:00,68.7,53.3,29.96,SW,221,6.0,25.0,58,0.00,,,0.00,Wunderground v.1.15,2013-05-24 22:45:00,
2013-05-24 15:51:00,68.6,52.8,29.96,South,169,6.0,25.0,57,0.00,,,0.00,Wunderground v.1.15,2013-05-24 22:51:00,
2013-05-24 15:57:00,68.7,53.3,29.96,SW,217,6.0,25.0,58,0.00,,,0.00,Wunderground v.1.15,2013-05-24 22:57:00,
2013-05-24 16:02:00,69.0,52.2,29.96,SSW,209,6.0,25.0,55,0.00,,,0.00,Wunderground v.1.15,2013-05-24 23:02:00,
2013-05-24 16:07:00,68.9,51.1,29.96,South,169,6.0,25.0,53,0.00,,,0.00,Wunderground v.1.15,2013-05-24 23:07:00,
2013-05-24 16:13:00,68.7,51.4,29.96,SW,214,6.0,25.0,54,0.00,,,0.00,Wunderground v.1.15,2013-05-24 23:13:00,
2013-05-24 16:18:00,68.8,51.5,29.96,SSE,156,6.0,25.0,54,0.00,,,0.00,Wunderground v.1.15,2013-05-24 23:18:00,
2013-05-24 16:24:00,68.8,52.0,29.96,SSW,204,6.0,25.0,55,0.00,,,0.00,Wunderground v.1.15,2013-05-24 23:24:00,
2013-05-24 16:29:00,68.7,51.9,29.96,South,184,5.0,25.0,55,0.00,,,0.00,Wunderground v.1.15,2013-05-24 23:29:00,
2013-05-24 16:35:00,68.4,51.6,29.95,SSW,202,5.0,25.0,55,0.00,,,0.00,Wunderground v.1.15,2013-05-24 23:35:00,
2013-05-24 16:41:00,68.0,51.7,29.95,South,189,6.0,25.0,56,0.00,,,0.00,Wunderground v.1.15,2013-05-24 23:41:00,
2013-05-24 16:46:00,68.0,51.7,29.95,South,188,6.0,25.0,56,0.00,,,0.00,Wunderground v.1.15,2013-05-24 23:46:00,
2013-05-24 16:52:00,68.1,51.8,29.95,SW,218,6.0,25.0,56,0.00,,,0.00,Wunderground v.1.15,2013-05-24 23:52:00,
2013-05-24 16:57:00,68.1,51.8,29.95,WSW,255,6.0,25.0,56,0.00,,,0.00,Wunderground v.1.15,2013-05-24 23:57:00,
2013-05-24 17:03:00,68.0,51.7,29.95,West,261,5.0,25.0,56,0.00,,,0.00,Wunderground v.1.15,2013-05-25 00:03:00,
2013-05-24 17:09:00,67.8,51.5,29.94,SSW,208,6.0,25.0,56,0.00,,,0.00,Wunderground v.1.15,2013-05-25 00:09:00,
2013-05-24 17:15:00,67.6,51.8,29.94,SW,222,5.0,25.0,57,0.00,,,0.00,Wunderground v.1.15,2013-05-25 00:15:00,
2013-05-24 17:21:00,67.6,51.8,29.94,SW,229,5.0,25.0,57,0.00,,,0.00,Wunderground v.1.15,2013-05-25 00:21:00,
2013-05-24 17:27:00,67.3,51.5,29.94,WSW,256,6.0,25.0,57,0.00,,,0.00,Wunderground v.1.15,2013-05-25 00:27:00,
2013-05-24 17:32:00,67.2,51.0,29.94,WSW,237,6.0,25.0,56,0.00,,,0.00,Wunderground v.1.15,2013-05-25 00:32:00,
2013-05-24 17:38:00,67.2,51.0,29.94,SSW,202,5.0,25.0,56,0.00,,,0.00,Wunderground v.1.15,2013-05-25 00:38:00,
2013-05-24 17:44:00,66.9,50.7,29.94,SW,219,6.0,25.0,56,0.00,,,0.00,Wunderground v.1.15,2013-05-25 00:44:00,
2013-05-24 17:50:00,66.9,51.6,29.94,SW,223,5.0,5.0,58,0.00,,,0.00,Wunderground v.1.15,2013-05-25 00:50:00,
2013-05-24 17:55:00,66.7,51.0,29.94,SSW,210,4.0,25.0,57,0.00,,,0.00,Wunderground v.1.15,2013-05-25 00:55:00,
2013-05-24 18:01:00,66.4,50.7,29.93,WSW,243,5.0,25.0,57,0.00,,,0.00,Wunderground v.1.15,2013-05-25 01:01:00,
2013-05-24 18:06:00,65.9,50.2,29.93,WSW,242,5.0,25.0,57,0.00,,,0.00,Wunderground v.1.15,2013-05-25 01:06:00,
2013-05-24 18:11:00,65.3,50.1,29.93,SW,229,6.0,25.0,58,0.00,,,0.00,Wunderground v.1.15,2013-05-25 01:11:00,
2013-05-24 18:17:00,65.1,50.0,29.93,SW,223,5.0,25.0,58,0.00,,,0.00,Wunderground v.1.15,2013-05-25 01:17:00,
2013-05-24 18:23:00,64.6,49.5,29.93,WSW,255,5.0,25.0,58,0.00,,,0.00,Wunderground v.1.15,2013-05-25 01:23:00,
2013-05-24 18:29:00,64.3,49.7,29.93,WSW,253,6.0,25.0,59,0.00,,,0.00,Wunderground v.1.15,2013-05-25 01:29:00,
2013-05-24 18:34:00,64.1,49.9,29.93,West,268,5.0,25.0,60,0.00,,,0.00,Wunderground v.1.15,2013-05-25 01:34:00,
2013-05-24 18:40:00,63.8,49.6,29.93,West,272,4.0,4.0,60,0.00,,,0.00,Wunderground v.1.15,2013-05-25 01:40:00,
2013-05-24 18:46:00,63.6,49.9,29.93,WSW,254,5.0,25.0,61,0.00,,,0.00,Wunderground v.1.15,2013-05-25 01:46:00,
2013-05-24 18:51:00,63.4,49.7,29.93,SW,232,5.0,25.0,61,0.00,,,0.00,Wunderground v.1.15,2013-05-25 01:51:00,
2013-05-24 18:57:00,63.2,49.5,29.93,WSW,257,4.0,25.0,61,0.00,,,0.00,Wunderground v.1.15,2013-05-25 01:57:00,
2013-05-24 19:03:00,63.0,49.3,29.93,WNW,290,4.0,25.0,61,0.00,,,0.00,Wunderground v.1.15,2013-05-25 02:03:00,
2013-05-24 19:08:00,62.8,49.6,29.93,West,275,4.0,25.0,62,0.00,,,0.00,Wunderground v.1.15,2013-05-25 02:08:00,
2013-05-24 19:13:00,62.6,49.4,29.93,WSW,248,4.0,25.0,62,0.00,,,0.00,Wunderground v.1.15,2013-05-25 02:13:00,
2013-05-24 19:19:00,62.4,49.6,29.93,West,259,3.0,25.0,63,0.00,,,0.00,Wunderground v.1.15,2013-05-25 02:19:00,
2013-05-24 19:26:00,62.2,49.4,29.93,West,268,3.0,25.0,63,0.00,,,0.00,Wunderground v.1.15,2013-05-25 02:26:00,
2013-05-24 19:31:00,61.8,49.1,29.93,West,261,3.0,25.0,63,0.00,,,0.00,Wunderground v.1.15,2013-05-25 02:31:00,
2013-05-24 19:38:00,61.4,49.1,29.93,West,259,3.0,25.0,64,0.00,,,0.00,Wunderground v.1.15,2013-05-25 02:38:00,
2013-05-24 19:43:00,60.9,48.6,29.94,West,266,3.0,25.0,64,0.00,,,0.00,Wunderground v.1.15,2013-05-25 02:43:00,
2013-05-24 19:49:00,60.5,48.7,29.94,WSW,245,4.0,25.0,65,0.00,,,0.00,Wunderground v.1.15,2013-05-25 02:49:00,
2013-05-24 19:55:00,60.1,48.7,29.94,WSW,254,4.0,25.0,66,0.00,,,0.00,Wunderground v.1.15,2013-05-25 02:55:00,
2013-05-24 20:00:00,59.9,48.5,29.94,West,260,4.0,25.0,66,0.00,,,0.00,Wunderground v.1.15,2013-05-25 03:00:00,
2013-05-24 20:06:00,59.5,48.1,29.94,WSW,258,5.0,25.0,66,0.00,,,0.00,Wunderground v.1.15,2013-05-25 03:06:00,
2013-05-24 20:11:00,59.2,47.8,29.94,West,262,4.0,25.0,66,0.00,,,0.00,Wunderground v.1.15,2013-05-25 03:11:00,
2013-05-24 20:17:00,59.0,48.1,29.94,WSW,252,3.0,25.0,67,0.00,,,0.00,Wunderground v.1.15,2013-05-25 03:17:00,
2013-05-24 20:23:00,58.8,47.9,29.95,West,270,1.0,25.0,67,0.00,,,0.00,Wunderground v.1.15,2013-05-25 03:23:00,
2013-05-24 20:29:00,58.4,47.9,29.95,WNW,289,0.0,25.0,68,0.00,,,0.00,Wunderground v.1.15,2013-05-25 03:29:00,
2013-05-24 20:34:00,58.0,47.5,29.95,WNW,293,0.0,25.0,68,0.00,,,0.00,Wunderground v.1.15,2013-05-25 03:34:00,
2013-05-24 20:40:00,57.7,47.6,29.95,WNW,291,0.0,25.0,69,0.00,,,0.00,Wunderground v.1.15,2013-05-25 03:40:00,
2013-05-24 20:45:00,57.5,47.4,29.95,WNW,294,1.0,25.0,69,0.00,,,0.00,Wunderground v.1.15,2013-05-25 03:45:00,
2013-05-24 20:51:00,57.2,47.5,29.95,WNW,297,1.0,25.0,70,0.00,,,0.00,Wunderground v.1.15,2013-05-25 03:51:00,
2013-05-24 20:57:00,56.8,47.5,29.95,NW,304,1.0,25.0,71,0.00,,,0.00,Wunderground v.1.15,2013-05-25 03:57:00,
2013-05-24 21:01:00,56.6,47.3,29.95,NW,304,1.0,25.0,71,0.00,,,0.00,Wunderground v.1.15,2013-05-25 04:01:00,
2013-05-24 21:02:00,56.6,47.3,29.96,NW,304,1.0,25.0,71,0.00,,,0.00,Wunderground v.1.15,2013-05-25 04:02:00,
2013-05-24 21:03:00,56.5,47.2,29.96,NW,304,1.0,25.0,71,0.00,,,0.00,Wunderground v.1.15,2013-05-25 04:03:00,
2013-05-24 21:07:00,56.3,47.4,29.96,NW,304,0.0,25.0,72,0.00,,,0.00,Wunderground v.1.15,2013-05-25 04:07:00,
2013-05-24 21:09:00,56.2,47.7,29.96,NW,304,0.0,25.0,73,0.00,,,0.00,Wunderground v.1.15,2013-05-25 04:09:00,
2013-05-24 21:14:00,56.0,47.5,29.96,NW,304,0.0,25.0,73,0.00,,,0.00,Wunderground v.1.15,2013-05-25 04:14:00,
2013-05-24 21:19:00,55.6,47.4,29.96,NW,304,0.0,25.0,74,0.00,,,0.00,Wunderground v.1.15,2013-05-25 04:19:00,
2013-05-24 21:25:00,55.2,47.1,29.96,NNW,335,0.0,25.0,74,0.00,,,0.00,Wunderground v.1.15,2013-05-25 04:25:00,
2013-05-24 21:30:00,54.8,47.0,29.96,NNW,335,0.0,25.0,75,0.00,,,0.00,Wunderground v.1.15,2013-05-25 04:30:00,
2013-05-24 21:35:00,54.3,47.2,29.97,NNW,343,0.0,25.0,77,0.00,,,0.00,Wunderground v.1.15,2013-05-25 04:35:00,
2013-05-24 21:40:00,54.0,47.3,29.97,NNW,343,0.0,25.0,78,0.00,,,0.00,Wunderground v.1.15,2013-05-25 04:40:00,
2013-05-24 21:47:00,53.5,46.8,29.97,NNW,343,0.0,25.0,78,0.00,,,0.00,Wunderground v.1.15,2013-05-25 04:47:00,
2013-05-24 21:52:00,53.1,47.1,29.97,NNW,343,0.0,25.0,80,0.00,,,0.00,Wunderground v.1.15,2013-05-25 04:52:00,
2013-05-24 21:57:00,52.7,46.7,29.97,NNW,343,0.0,25.0,80,0.00,,,0.00,Wunderground v.1.15,2013-05-25 04:57:00,
2013-05-24 22:03:00,52.4,46.7,29.97,NNW,343,0.0,25.0,81,0.00,,,0.00,Wunderground v.1.15,2013-05-25 05:03:00,
2013-05-24 22:09:00,52.0,46.7,29.97,NNW,343,0.0,25.0,82,0.00,,,0.00,Wunderground v.1.15,2013-05-25 05:09:00,
2013-05-24 22:15:00,51.7,46.4,29.97,NNW,343,0.0,25.0,82,0.00,,,0.00,Wunderground v.1.15,2013-05-25 05:15:00,
2013-05-24 22:20:00,51.5,46.5,29.97,NNW,343,0.0,25.0,83,0.00,,,0.00,Wunderground v.1.15,2013-05-25 05:20:00,
2013-05-24 22:26:00,51.3,46.3,29.97,NNW,343,0.0,25.0,83,0.00,,,0.00,Wunderground v.1.15,2013-05-25 05:26:00,
2013-05-24 22:32:00,51.2,46.5,29.97,NNW,343,0.0,25.0,84,0.00,,,0.00,Wunderground v.1.15,2013-05-25 05:32:00,
2013-05-24 22:38:00,51.0,46.0,29.98,NNW,343,0.0,25.0,83,0.00,,,0.00,Wunderground v.1.15,2013-05-25 05:38:00,
2013-05-24 22:44:00,50.7,46.0,29.98,NNW,343,0.0,25.0,84,0.00,,,0.00,Wunderground v.1.15,2013-05-25 05:44:00,
2013-05-24 22:50:00,50.4,45.7,29.97,NNW,343,0.0,25.0,84,0.00,,,0.00,Wunderground v.1.15,2013-05-25 05:50:00,
2013-05-24 22:56:00,50.2,45.9,29.98,NNW,343,0.0,25.0,85,0.00,,,0.00,Wunderground v.1.15,2013-05-25 05:56:00,
2013-05-24 23:02:00,49.9,45.6,29.98,NNW,343,0.0,25.0,85,0.00,,,0.00,Wunderground v.1.15,2013-05-25 06:02:00,
2013-05-24 23:08:00,49.6,45.6,29.98,NNW,343,0.0,25.0,86,0.00,,,0.00,Wunderground v.1.15,2013-05-25 06:08:00,
2013-05-24 23:13:00,49.5,45.5,29.98,NNW,343,0.0,25.0,86,0.00,,,0.00,Wunderground v.1.15,2013-05-25 06:13:00,
2013-05-24 23:18:00,49.3,45.3,29.98,NNW,343,0.0,25.0,86,0.00,,,0.00,Wunderground v.1.15,2013-05-25 06:18:00,
2013-05-24 23:23:00,49.1,45.1,29.98,NNW,343,0.0,25.0,86,0.00,,,0.00,Wunderground v.1.15,2013-05-25 06:23:00,
2013-05-24 23:29:00,48.9,44.9,29.98,NNW,343,0.0,25.0,86,0.00,,,0.00,Wunderground v.1.15,2013-05-25 06:29:00,
2013-05-24 23:35:00,48.7,45.0,29.98,NNW,343,0.0,25.0,87,0.00,,,0.00,Wunderground v.1.15,2013-05-25 06:35:00,
2013-05-24 23:41:00,48.5,44.8,29.98,NNW,343,0.0,25.0,87,0.00,,,0.00,Wunderground v.1.15,2013-05-25 06:41:00,
2013-05-24 23:47:00,48.3,44.6,29.98,NNW,343,0.0,25.0,87,0.00,,,0.00,Wunderground v.1.15,2013-05-25 06:47:00,
2013-05-24 23:52:00,48.2,44.5,29.98,NNW,343,0.0,25.0,87,0.00,,,0.00,Wunderground v.1.15,2013-05-25 06:52:00,
2013-05-24 23:58:00,48.0,44.3,29.98,NNW,343,0.0,25.0,87,0.00,,,0.00,Wunderground v.1.15,2013-05-25 06:58:00,